Time;durP1;ratioP1;P1;durP2;ratioP2;P2;SDS_P1;SDS_P2;PMS_P1;PMS_P2;Temp;Humidity;BMP_temperature;BMP_pressure;BME280_temperature;BME280_humidity;BME280_pressure;Samples;Min_cycle;Max_cycle;Signal;HPM_P1;HPM_P2
2024/04/16 00:02:43;;;;;;;16.47;9.70;;;6.70;99.90;;;;;;5449378;26;20330;-81
2024/04/16 00:05:31;;;;;;;17.33;8.57;;;6.60;99.90;;;;;;5448729;26;20719;-80
2024/04/16 00:08:19;;;;;;;18.57;9.37;;;6.60;99.90;;;;;;5448717;26;20253;-80
2024/04/16 00:11:06;;;;;;;15.27;8.90;;;6.60;99.90;;;;;;5422456;26;20215;-81
2024/04/16 00:13:54;;;;;;;20.30;9.13;;;6.60;99.90;;;;;;5448828;26;20328;-80
2024/04/16 00:16:41;;;;;;;16.47;9.03;;;6.60;99.90;;;;;;5388169;26;20635;-81
2024/04/16 00:19:28;;;;;;;16.47;9.20;;;6.70;99.90;;;;;;5411609;26;20281;-81
2024/04/16 00:22:16;;;;;;;18.43;10.17;;;6.70;99.90;;;;;;5413815;26;20696;-81
2024/04/16 00:25:05;;;;;;;17.60;9.47;;;6.60;99.90;;;;;;5413756;26;20279;-81
2024/04/16 00:27:52;;;;;;;17.70;10.20;;;6.50;99.90;;;;;;5413517;26;20216;-81
2024/04/16 00:30:40;;;;;;;20.57;10.63;;;6.60;99.90;;;;;;5413730;26;20222;-81
2024/04/16 00:33:27;;;;;;;19.00;9.77;;;6.60;99.90;;;;;;5414033;26;20217;-81
2024/04/16 00:36:14;;;;;;;20.37;8.70;;;6.60;99.90;;;;;;5411840;26;20583;-81
2024/04/16 00:39:02;;;;;;;17.83;9.17;;;6.60;99.90;;;;;;5411684;26;20835;-81
2024/04/16 00:41:50;;;;;;;20.43;8.57;;;6.60;99.90;;;;;;5412451;26;20333;-81
2024/04/16 00:44:37;;;;;;;19.23;8.90;;;6.70;99.90;;;;;;5412450;26;20215;-80
2024/04/16 00:47:25;;;;;;;16.97;8.47;;;6.70;99.90;;;;;;5413830;26;20216;-80
2024/04/16 00:50:13;;;;;;;15.60;8.00;;;6.60;99.90;;;;;;5412471;26;20274;-80
2024/04/16 00:53:01;;;;;;;17.77;8.87;;;6.60;99.90;;;;;;5461319;26;20709;-80
2024/04/16 00:55:50;;;;;;;21.03;8.70;;;6.70;99.90;;;;;;5415117;26;21167;-80
2024/04/16 00:58:40;;;;;;;17.80;8.90;;;6.80;99.90;;;;;;5412532;26;20263;-80
2024/04/16 01:01:27;;;;;;;15.20;8.70;;;6.80;99.90;;;;;;5461631;26;20215;-80
2024/04/16 01:04:15;;;;;;;16.13;8.37;;;6.90;99.90;;;;;;5412497;26;20290;-80
2024/04/16 01:07:04;;;;;;;16.27;8.37;;;6.90;99.90;;;;;;5411928;26;20221;-80
2024/04/16 01:09:51;;;;;;;17.33;8.77;;;6.90;99.90;;;;;;5411761;26;20801;-79
2024/04/16 01:12:42;;;;;;;15.40;8.40;;;6.80;99.90;;;;;;5411791;26;20219;-80
2024/04/16 01:15:30;;;;;;;19.20;8.83;;;6.80;99.90;;;;;;5423760;26;20244;-80
2024/04/16 01:18:17;;;;;;;19.93;9.27;;;6.90;99.90;;;;;;5447498;26;20264;-79
2024/04/16 01:21:05;;;;;;;19.07;8.63;;;6.90;99.90;;;;;;5422761;26;20230;-78
2024/04/16 01:23:53;;;;;;;15.50;8.50;;;7.00;99.90;;;;;;5422616;26;20285;-80
2024/04/16 01:26:40;;;;;;;14.10;8.60;;;7.00;99.90;;;;;;5422485;26;20215;-79
2024/04/16 01:29:28;;;;;;;20.30;9.00;;;7.10;99.90;;;;;;5447864;26;20222;-79
2024/04/16 01:32:15;;;;;;;17.33;8.87;;;7.10;99.90;;;;;;5447146;26;20320;-79
2024/04/16 01:35:03;;;;;;;21.10;9.60;;;7.20;99.90;;;;;;5447514;26;20874;-79
2024/04/16 01:37:51;;;;;;;18.20;9.97;;;7.20;99.90;;;;;;5449566;26;20808;-78
2024/04/16 01:40:38;;;;;;;17.77;9.60;;;7.00;99.90;;;;;;5450960;26;20322;-78
2024/04/16 01:43:26;;;;;;;18.77;9.20;;;6.90;99.90;;;;;;5426023;26;20211;-78
2024/04/16 01:46:13;;;;;;;17.70;9.30;;;6.90;99.90;;;;;;5425168;26;20227;-77
2024/04/16 01:49:01;;;;;;;18.30;9.73;;;7.00;99.90;;;;;;5450673;26;20249;-78
2024/04/16 01:51:49;;;;;;;19.33;9.77;;;7.10;99.90;;;;;;5452022;26;20322;-78
2024/04/16 01:54:36;;;;;;;23.27;10.53;;;7.00;99.90;;;;;;5426015;26;20282;-78
2024/04/16 01:57:23;;;;;;;18.33;9.37;;;7.10;99.90;;;;;;5452198;26;20219;-79
2024/04/16 02:00:11;;;;;;;18.87;10.03;;;7.10;99.90;;;;;;5450945;26;20225;-79
2024/04/16 02:03:01;;;;;;;20.53;10.00;;;7.30;99.90;;;;;;5450620;26;20218;-79
2024/04/16 02:05:48;;;;;;;16.23;8.67;;;7.30;99.90;;;;;;5452872;26;20276;-79
2024/04/16 02:08:36;;;;;;;17.23;8.07;;;7.40;99.90;;;;;;5450472;26;20270;-79
2024/04/16 02:11:24;;;;;;;16.43;8.40;;;7.40;99.90;;;;;;5451851;26;20727;-78
2024/04/16 02:14:12;;;;;;;14.57;7.90;;;7.30;99.90;;;;;;5452596;26;20624;-78
2024/04/16 02:16:59;;;;;;;17.50;8.17;;;7.40;99.90;;;;;;5380246;26;20249;-78
2024/04/16 02:19:46;;;;;;;14.77;7.90;;;7.50;99.90;;;;;;5379989;26;20236;-77
2024/04/16 02:22:34;;;;;;;13.87;7.60;;;7.50;99.90;;;;;;5378091;26;20293;-78
2024/04/16 02:25:22;;;;;;;15.97;8.13;;;7.50;99.90;;;;;;5379562;26;20227;-79
2024/04/16 02:28:09;;;;;;;16.00;8.00;;;7.50;99.90;;;;;;5379764;26;20761;-79
2024/04/16 02:30:57;;;;;;;15.93;8.53;;;7.50;99.90;;;;;;5401983;26;20277;-79
2024/04/16 02:33:44;;;;;;;12.30;7.77;;;7.50;99.90;;;;;;5379035;26;20635;-81
2024/04/16 02:36:31;;;;;;;16.37;7.67;;;7.50;99.90;;;;;;5378595;26;20684;-81
2024/04/16 02:39:19;;;;;;;12.80;7.93;;;7.40;99.90;;;;;;5403469;26;20664;-80
2024/04/16 02:42:06;;;;;;;14.07;7.43;;;7.30;99.90;;;;;;5378848;26;20213;-80
2024/04/16 02:44:54;;;;;;;13.23;8.07;;;7.20;99.90;;;;;;5378869;26;20263;-80
2024/04/16 02:47:41;;;;;;;13.60;7.57;;;7.20;99.90;;;;;;5379107;26;20325;-81
2024/04/16 02:50:29;;;;;;;13.93;8.10;;;7.10;99.90;;;;;;5378722;26;20271;-81
2024/04/16 02:53:17;;;;;;;15.07;7.97;;;7.10;99.90;;;;;;5378602;26;20218;-81
2024/04/16 02:56:05;;;;;;;13.97;8.63;;;7.00;99.90;;;;;;5379606;26;20226;-81
2024/04/16 02:58:53;;;;;;;13.87;8.27;;;7.00;99.90;;;;;;5378660;26;20645;-81
2024/04/16 03:01:40;;;;;;;14.80;7.87;;;7.00;99.90;;;;;;5428515;26;20224;-80
2024/04/16 03:04:27;;;;;;;15.33;8.27;;;6.90;99.90;;;;;;5378247;26;20617;-79
2024/04/16 03:07:15;;;;;;;16.20;8.57;;;7.00;99.90;;;;;;5378703;26;20216;-79
2024/04/16 03:10:03;;;;;;;15.57;8.43;;;7.00;99.90;;;;;;5378475;26;20218;-79
2024/04/16 03:12:54;;;;;;;14.77;8.57;;;7.00;99.90;;;;;;5379069;26;20221;-79
2024/04/16 03:15:41;;;;;;;15.10;8.97;;;7.00;99.90;;;;;;5410295;26;20335;-80
2024/04/16 03:18:29;;;;;;;13.80;8.43;;;7.00;99.90;;;;;;5450001;26;20315;-78
2024/04/16 03:21:17;;;;;;;15.30;8.90;;;6.90;99.90;;;;;;5424592;26;20261;-80
2024/04/16 03:24:04;;;;;;;18.73;9.90;;;6.90;99.90;;;;;;5424536;26;20219;-77
2024/04/16 03:26:51;;;;;;;18.33;9.60;;;7.00;99.90;;;;;;5449328;26;20278;-78
2024/04/16 03:29:39;;;;;;;16.50;9.40;;;7.00;99.90;;;;;;5424280;26;20316;-79
2024/04/16 03:32:26;;;;;;;18.57;9.40;;;7.00;99.90;;;;;;5450010;26;20211;-81
2024/04/16 03:35:14;;;;;;;16.33;9.07;;;7.10;99.90;;;;;;5424296;26;20289;-80
2024/04/16 03:38:02;;;;;;;16.20;8.40;;;7.10;99.90;;;;;;5449071;26;20217;-79
2024/04/16 03:41:02;;;;;;;14.90;8.67;;;7.20;99.90;;;;;;5449180;26;20228;-80
2024/04/16 03:43:50;;;;;;;14.67;8.67;;;7.20;99.90;;;;;;5449075;26;20207;-79
2024/04/16 03:46:40;;;;;;;17.00;8.67;;;7.10;99.90;;;;;;5450191;26;20215;-78
2024/04/16 03:49:28;;;;;;;14.47;8.43;;;7.10;99.90;;;;;;5450266;26;20304;-79
2024/04/16 03:52:15;;;;;;;15.53;8.30;;;7.00;99.90;;;;;;5424000;26;20214;-78
2024/04/16 03:55:05;;;;;;;14.70;8.20;;;7.00;99.90;;;;;;5423019;26;20223;-78
2024/04/16 03:57:52;;;;;;;15.37;8.47;;;7.10;99.90;;;;;;5473007;26;20260;-78
2024/04/16 04:03:46;;;;;;;13.97;9.00;;;7.10;99.90;;;;;;5448201;26;20261;-79
2024/04/16 04:06:33;;;;;;;16.20;8.97;;;7.40;99.90;;;;;;5449798;26;20326;-78
2024/04/16 04:09:21;;;;;;;15.93;9.13;;;7.20;99.90;;;;;;5423899;26;20219;-79
2024/04/16 04:12:08;;;;;;;15.60;8.87;;;7.20;99.90;;;;;;5425044;26;20218;-77
2024/04/16 04:14:56;;;;;;;15.00;8.90;;;7.20;99.90;;;;;;5448930;26;20213;-78
2024/04/16 04:17:43;;;;;;;17.10;9.47;;;7.30;99.90;;;;;;5423196;26;20335;-79
2024/04/16 04:20:31;;;;;;;17.60;9.70;;;7.30;99.90;;;;;;5449774;26;20258;-79
2024/04/16 04:23:19;;;;;;;18.37;10.60;;;7.40;99.90;;;;;;5450812;26;20771;-78
2024/04/16 04:26:06;;;;;;;17.63;10.57;;;7.60;99.90;;;;;;5423156;26;20271;-81
2024/04/16 04:28:55;;;;;;;16.80;10.43;;;7.60;99.90;;;;;;5448519;26;20265;-78
2024/04/16 04:31:42;;;;;;;19.07;11.13;;;7.60;99.90;;;;;;5449794;26;20217;-80
2024/04/16 04:34:30;;;;;;;17.93;10.97;;;7.70;99.90;;;;;;5449397;26;20239;-79
2024/04/16 04:37:17;;;;;;;16.57;10.27;;;7.70;99.90;;;;;;5449773;26;20321;-79
2024/04/16 04:40:05;;;;;;;18.40;11.07;;;7.80;99.90;;;;;;5424396;26;20218;-72
2024/04/16 04:42:55;;;;;;;18.97;11.47;;;7.90;99.90;;;;;;5449276;26;20211;-73
2024/04/16 04:45:42;;;;;;;18.40;11.27;;;8.00;99.90;;;;;;5448610;26;20319;-73
2024/04/16 04:48:29;;;;;;;16.97;10.97;;;8.00;99.90;;;;;;5449171;26;20217;-73
2024/04/16 04:51:17;;;;;;;18.17;11.20;;;8.00;99.90;;;;;;5424374;26;20225;-73
2024/04/16 04:54:05;;;;;;;16.13;10.30;;;8.10;99.90;;;;;;5449047;26;20225;-73
2024/04/16 04:56:52;;;;;;;15.30;9.73;;;8.10;99.90;;;;;;5423206;26;20570;-73
2024/04/16 04:59:39;;;;;;;17.60;9.33;;;8.20;99.90;;;;;;5447818;26;20215;-73
2024/04/16 05:02:27;;;;;;;12.73;7.93;;;8.20;99.90;;;;;;5423064;26;20617;-73
2024/04/16 05:05:14;;;;;;;11.23;7.03;;;8.20;99.90;;;;;;5423074;26;20228;-72
2024/04/16 05:08:02;;;;;;;10.13;7.43;;;8.20;99.90;;;;;;5447498;26;20611;-72
2024/04/16 05:10:51;;;;;;;13.40;6.90;;;8.30;99.90;;;;;;5422656;26;20258;-72
2024/04/16 05:13:38;;;;;;;8.70;6.53;;;8.20;99.90;;;;;;5423908;26;20311;-73
2024/04/16 05:16:26;;;;;;;9.03;5.80;;;8.20;99.90;;;;;;5416269;26;20229;-73
2024/04/16 05:19:13;;;;;;;7.83;5.40;;;8.20;99.90;;;;;;5416150;26;20267;-73
2024/04/16 05:22:01;;;;;;;6.20;3.20;;;8.20;99.90;;;;;;5414588;26;20228;-72
2024/04/16 05:24:48;;;;;;;5.33;2.60;;;8.10;99.90;;;;;;5414573;26;20752;-74
2024/04/16 05:27:36;;;;;;;3.43;1.70;;;7.90;99.90;;;;;;5415005;26;20217;-74
2024/04/16 05:30:23;;;;;;;2.80;1.30;;;7.80;99.90;;;;;;5414458;26;20691;-74
2024/04/16 05:33:11;;;;;;;1.60;1.20;;;7.60;99.90;;;;;;5415258;26;20215;-73
2024/04/16 05:35:58;;;;;;;2.53;1.20;;;7.40;99.90;;;;;;5414203;26;20339;-74
2024/04/16 05:38:52;;;;;;;2.70;1.20;;;7.30;99.90;;;;;;5414985;26;20216;-75
2024/04/16 05:41:40;;;;;;;1.50;1.30;;;7.20;99.90;;;;;;5414820;26;20777;-74
2024/04/16 05:44:27;;;;;;;3.53;1.50;;;7.20;99.90;;;;;;5414750;26;20639;-74
2024/04/16 05:47:14;;;;;;;1.47;1.37;;;7.20;99.90;;;;;;5415515;26;20215;-74
2024/04/16 05:50:02;;;;;;;1.43;1.30;;;7.20;99.90;;;;;;5414598;26;20264;-74
2024/04/16 05:52:50;;;;;;;2.87;1.10;;;7.10;99.90;;;;;;5414917;26;20219;-74
2024/04/16 05:55:37;;;;;;;2.23;1.40;;;7.20;99.90;;;;;;5414199;26;20213;-74
2024/04/16 05:58:25;;;;;;;1.10;1.00;;;7.10;99.90;;;;;;5414767;26;20219;-74
2024/04/16 06:01:12;;;;;;;3.47;1.20;;;7.00;99.90;;;;;;5415130;26;20324;-74
2024/04/16 06:04:01;;;;;;;4.30;1.23;;;7.10;99.90;;;;;;5415562;26;20215;-74
2024/04/16 06:06:48;;;;;;;2.30;1.10;;;7.10;99.90;;;;;;5416600;26;20275;-74
2024/04/16 06:09:36;;;;;;;1.60;1.03;;;7.30;99.90;;;;;;5415812;26;20216;-74
2024/04/16 06:12:23;;;;;;;2.67;1.10;;;7.40;99.90;;;;;;5415066;26;20228;-74
2024/04/16 06:15:10;;;;;;;3.03;1.20;;;7.60;99.90;;;;;;5421855;26;20227;-74
2024/04/16 06:17:58;;;;;;;1.60;1.30;;;7.70;99.90;;;;;;5450496;26;20570;-74
2024/04/16 06:20:45;;;;;;;3.27;1.30;;;7.90;99.90;;;;;;5424152;26;20231;-74
2024/04/16 06:23:33;;;;;;;4.97;1.60;;;7.90;99.90;;;;;;5425206;26;20317;-74
2024/04/16 06:26:21;;;;;;;2.23;1.40;;;7.70;99.90;;;;;;5450261;26;20219;-74
2024/04/16 06:29:08;;;;;;;1.47;1.37;;;7.70;99.90;;;;;;5451442;26;20214;-74
2024/04/16 06:31:56;;;;;;;1.57;1.40;;;7.70;99.90;;;;;;5425008;26;20213;-74
2024/04/16 06:34:43;;;;;;;2.17;1.70;;;7.60;99.90;;;;;;5450328;26;20254;-74
2024/04/16 06:37:30;;;;;;;4.00;1.43;;;7.60;99.90;;;;;;5450122;26;20223;-74
2024/04/16 06:40:18;;;;;;;1.43;1.30;;;7.50;99.90;;;;;;5451637;26;20269;-74
2024/04/16 06:43:05;;;;;;;1.90;1.13;;;7.50;99.90;;;;;;5449831;26;20262;-74
2024/04/16 06:45:53;;;;;;;6.33;1.20;;;7.60;99.90;;;;;;5425079;26;20218;-74
2024/04/16 06:48:40;;;;;;;1.43;1.20;;;7.70;99.90;;;;;;5424070;26;20324;-74
2024/04/16 06:51:27;;;;;;;2.13;1.30;;;7.80;99.90;;;;;;5449790;26;20706;-74
2024/04/16 06:54:15;;;;;;;2.60;1.43;;;7.70;99.90;;;;;;5423782;26;20216;-74
2024/04/16 06:57:02;;;;;;;2.87;1.30;;;7.70;99.90;;;;;;5450324;26;20217;-75
2024/04/16 06:59:49;;;;;;;1.97;1.33;;;7.60;99.90;;;;;;5423612;26;20261;-74
2024/04/16 07:02:37;;;;;;;2.20;1.33;;;7.60;99.90;;;;;;5449985;26;20260;-75
2024/04/16 07:05:24;;;;;;;3.30;1.40;;;7.70;99.90;;;;;;5451015;26;20229;-74
2024/04/16 07:08:12;;;;;;;5.97;1.90;;;7.80;99.90;;;;;;5422903;26;20264;-75
2024/04/16 07:10:59;;;;;;;2.93;1.40;;;7.90;99.90;;;;;;5450528;26;20265;-75
2024/04/16 07:13:47;;;;;;;2.03;1.50;;;8.00;99.90;;;;;;5448820;26;20222;-75
2024/04/16 07:16:34;;;;;;;4.50;1.50;;;7.90;99.90;;;;;;5449702;26;20230;-75
2024/04/16 07:19:22;;;;;;;3.20;1.50;;;7.90;99.90;;;;;;5423547;26;20290;-75
2024/04/16 07:22:09;;;;;;;2.00;1.33;;;7.90;99.90;;;;;;5423953;26;20218;-74
2024/04/16 07:24:57;;;;;;;2.47;1.50;;;8.00;99.90;;;;;;5424330;26;20215;-75
2024/04/16 07:27:44;;;;;;;1.73;1.30;;;7.90;99.90;;;;;;5424831;26;20564;-75
2024/04/16 07:30:34;;;;;;;4.57;1.43;;;8.00;99.90;;;;;;5449140;26;20547;-74
2024/04/16 07:33:23;;;;;;;2.73;1.50;;;8.10;99.90;;;;;;5449712;26;20271;-74
2024/04/16 07:36:11;;;;;;;2.07;1.50;;;8.20;99.90;;;;;;5447962;26;20580;-76
2024/04/16 07:38:58;;;;;;;3.10;1.37;;;8.20;99.90;;;;;;5426277;26;20211;-74
2024/04/16 07:41:46;;;;;;;3.10;1.50;;;8.20;99.90;;;;;;5450345;26;20327;-74
2024/04/16 07:44:35;;;;;;;4.00;1.93;;;8.20;99.90;;;;;;5449548;26;20218;-74
2024/04/16 07:47:22;;;;;;;3.93;1.77;;;8.10;99.90;;;;;;5448848;26;20625;-74
2024/04/16 07:50:10;;;;;;;2.47;1.50;;;8.00;99.90;;;;;;5449308;26;20312;-75
2024/04/16 07:52:57;;;;;;;1.87;1.60;;;8.20;99.90;;;;;;5449103;26;20593;-75
2024/04/16 07:55:45;;;;;;;5.20;1.40;;;8.40;99.90;;;;;;5449286;26;20751;-75
2024/04/16 07:58:33;;;;;;;2.13;1.53;;;8.30;99.90;;;;;;5448903;26;20273;-74
2024/04/16 08:01:20;;;;;;;3.90;1.67;;;8.40;99.90;;;;;;5424181;26;20530;-75
2024/04/16 08:04:08;;;;;;;2.00;1.50;;;8.50;99.90;;;;;;5423658;26;20229;-75
2024/04/16 08:06:55;;;;;;;3.57;1.80;;;8.50;99.90;;;;;;5424040;26;20320;-74
2024/04/16 08:09:43;;;;;;;2.73;1.50;;;8.50;99.90;;;;;;5448736;26;20319;-75
2024/04/16 08:12:30;;;;;;;2.77;1.40;;;8.70;99.90;;;;;;5449255;26;20215;-76
2024/04/16 08:15:18;;;;;;;3.03;1.30;;;8.80;99.90;;;;;;5422659;26;20256;-76
2024/04/16 08:18:05;;;;;;;4.87;1.33;;;8.80;99.90;;;;;;5449265;26;20334;-75
2024/04/16 08:20:53;;;;;;;3.93;1.33;;;8.80;99.90;;;;;;5422683;26;20279;-74
2024/04/16 08:23:40;;;;;;;1.40;1.07;;;8.80;99.90;;;;;;5423004;26;20215;-75
2024/04/16 08:26:27;;;;;;;2.30;1.20;;;9.10;99.90;;;;;;5448562;26;20258;-75
2024/04/16 08:29:15;;;;;;;3.47;1.43;;;9.30;99.90;;;;;;5448805;26;20258;-74
2024/04/16 08:32:02;;;;;;;2.87;1.40;;;9.30;99.90;;;;;;5423302;26;20258;-74
2024/04/16 08:34:53;;;;;;;2.97;1.07;;;9.60;99.90;;;;;;5448297;26;20223;-75
2024/04/16 08:37:40;;;;;;;3.93;1.20;;;9.60;99.90;;;;;;5448797;26;20564;-74
2024/04/16 08:40:28;;;;;;;1.63;1.20;;;9.50;99.90;;;;;;5448448;26;20215;-73
2024/04/16 08:43:15;;;;;;;2.60;1.33;;;9.50;99.90;;;;;;5449417;26;20223;-73
2024/04/16 08:46:03;;;;;;;4.97;1.30;;;9.00;99.90;;;;;;5448131;26;20275;-73
2024/04/16 08:48:52;;;;;;;1.87;1.27;;;9.00;99.90;;;;;;5475773;26;20216;-75
2024/04/16 08:51:40;;;;;;;3.93;1.37;;;8.90;99.90;;;;;;5452763;26;20215;-74
2024/04/16 08:54:28;;;;;;;2.30;1.20;;;8.90;99.90;;;;;;5453682;26;20257;-76
2024/04/16 08:57:18;;;;;;;2.80;1.30;;;8.80;99.90;;;;;;5451818;26;20710;-76
2024/04/16 09:00:07;;;;;;;4.93;1.47;;;8.70;99.90;;;;;;5475322;26;20215;-75
2024/04/16 09:02:54;;;;;;;3.53;1.40;;;8.70;99.90;;;;;;5475602;26;20215;-75
2024/04/16 09:05:42;;;;;;;3.23;1.20;;;8.80;99.90;;;;;;5425440;26;20227;-75
2024/04/16 09:08:31;;;;;;;3.47;1.40;;;8.70;99.90;;;;;;5451496;26;20219;-75
2024/04/16 09:11:19;;;;;;;5.03;1.87;;;8.60;99.90;;;;;;5452710;26;20242;-76
2024/04/16 09:14:07;;;;;;;2.03;1.30;;;8.80;99.90;;;;;;5452381;26;20319;-75
2024/04/16 09:16:55;;;;;;;4.67;1.53;;;8.80;99.90;;;;;;5451197;26;20269;-75
2024/04/16 09:19:43;;;;;;;3.63;1.20;;;8.60;99.90;;;;;;5425528;26;20228;-75
2024/04/16 09:22:31;;;;;;;3.40;1.27;;;8.80;99.90;;;;;;5452559;26;20778;-75
2024/04/16 09:25:19;;;;;;;2.37;1.13;;;8.90;99.90;;;;;;5453465;26;20208;-75
2024/04/16 09:28:07;;;;;;;1.83;1.37;;;9.00;99.90;;;;;;5425115;26;20265;-75
2024/04/16 09:30:56;;;;;;;3.70;1.33;;;9.10;99.90;;;;;;5426148;26;20260;-75
2024/04/16 09:33:44;;;;;;;3.03;1.20;;;9.10;99.90;;;;;;5475313;26;20320;-75
2024/04/16 09:36:33;;;;;;;4.03;1.23;;;8.90;99.90;;;;;;5451239;26;20738;-75
2024/04/16 09:39:23;;;;;;;3.67;1.40;;;9.00;99.90;;;;;;5453074;26;20219;-75
2024/04/16 09:42:10;;;;;;;2.47;1.20;;;9.00;99.90;;;;;;5452191;26;20224;-75
2024/04/16 09:44:58;;;;;;;2.37;1.40;;;9.10;99.90;;;;;;5450840;26;20683;-75
2024/04/16 09:47:48;;;;;;;8.17;1.70;;;9.30;99.90;;;;;;5424170;26;20227;-75
2024/04/16 09:50:38;;;;;;;2.97;1.50;;;9.20;99.90;;;;;;5451067;26;20223;-74
2024/04/16 09:53:43;;;;;;;24.80;3.13;;;9.40;99.90;;;;;;5450993;26;20757;-74
2024/04/16 09:56:35;;;;;;;5.13;1.50;;;9.30;99.90;;;;;;5452635;26;20676;-75
2024/04/16 09:59:24;;;;;;;1.93;1.40;;;9.30;99.90;;;;;;5450766;26;20212;-75
2024/04/16 10:02:12;;;;;;;2.67;1.50;;;9.20;99.90;;;;;;5475139;26;20738;-74
2024/04/16 10:05:01;;;;;;;3.07;1.70;;;9.20;99.90;;;;;;5425735;26;20254;-75
2024/04/16 10:07:49;;;;;;;4.40;1.70;;;9.30;99.90;;;;;;5452601;26;20259;-75
2024/04/16 10:10:37;;;;;;;5.50;1.63;;;9.30;99.90;;;;;;5423305;26;20602;-75
2024/04/16 10:13:27;;;;;;;6.63;1.70;;;9.40;99.90;;;;;;5452533;26;20287;-75
2024/04/16 10:16:18;;;;;;;4.33;1.57;;;9.60;99.90;;;;;;5450366;26;20266;-75
2024/04/16 10:19:08;;;;;;;5.53;1.60;;;9.80;99.90;;;;;;5450811;26;20227;-75
2024/04/16 10:22:03;;;;;;;3.50;1.60;;;9.70;99.90;;;;;;5450612;26;20251;-75
2024/04/16 10:24:55;;;;;;;5.87;1.50;;;9.80;99.90;;;;;;5450547;26;20612;-75
2024/04/16 10:27:42;;;;;;;2.67;1.40;;;9.90;99.90;;;;;;5424626;26;20319;-75
2024/04/16 10:30:31;;;;;;;2.87;1.60;;;9.90;99.90;;;;;;5450292;26;20215;-75
2024/04/16 10:33:25;;;;;;;2.10;1.50;;;9.80;99.90;;;;;;5452392;26;20264;-75
2024/04/16 10:36:15;;;;;;;3.47;1.47;;;9.90;99.90;;;;;;5451711;26;20220;-75
2024/04/16 10:39:13;;;;;;;2.97;1.60;;;9.80;99.90;;;;;;5450720;26;20254;-75
2024/04/16 10:42:03;;;;;;;4.30;1.60;;;10.00;99.90;;;;;;5450312;26;20273;-76
2024/04/16 10:44:51;;;;;;;4.03;1.40;;;10.20;99.90;;;;;;5450507;26;20208;-75
2024/04/16 10:51:40;;;;;;;3.67;1.70;;;9.90;99.90;;;;;;5450240;26;20228;-77
2024/04/16 10:54:28;;;;;;;5.17;1.20;;;9.80;99.90;;;;;;5424177;26;20211;-76
2024/04/16 10:57:17;;;;;;;1.80;1.00;;;10.00;99.90;;;;;;5449787;26;20304;-76
2024/04/16 11:00:06;;;;;;;7.07;1.27;;;10.10;99.90;;;;;;5449883;26;20216;-76
2024/04/16 11:03:00;;;;;;;1.60;1.10;;;10.20;99.90;;;;;;5425648;26;20211;-75
2024/04/16 11:05:48;;;;;;;3.90;1.13;;;10.30;99.90;;;;;;5451719;26;20235;-74
2024/04/16 11:08:37;;;;;;;5.07;1.20;;;10.30;99.90;;;;;;5449582;26;20634;-75
2024/04/16 11:11:25;;;;;;;4.00;1.20;;;10.20;99.90;;;;;;5449884;26;20262;-76
2024/04/16 11:14:13;;;;;;;4.30;1.10;;;10.30;99.90;;;;;;5449673;26;20212;-76
2024/04/16 11:17:09;;;;;;;3.57;1.37;;;10.20;99.90;;;;;;5451026;26;20227;-76
2024/04/16 11:19:57;;;;;;;3.43;1.10;;;10.20;99.90;;;;;;5424403;26;20758;-76
2024/04/16 11:22:45;;;;;;;2.67;1.00;;;10.00;99.90;;;;;;5423231;26;20283;-76
2024/04/16 11:25:33;;;;;;;2.73;1.20;;;10.10;99.90;;;;;;5424687;26;20216;-76
2024/04/16 11:28:21;;;;;;;7.07;1.50;;;10.10;99.90;;;;;;5449607;26;20635;-75
2024/04/16 11:31:09;;;;;;;3.57;1.10;;;10.30;99.90;;;;;;5449837;26;20279;-75
2024/04/16 11:33:57;;;;;;;2.10;1.20;;;10.50;99.90;;;;;;5474301;26;20311;-76
2024/04/16 11:36:49;;;;;;;3.30;1.50;;;10.70;99.90;;;;;;5424648;26;20215;-75
2024/04/16 11:39:42;;;;;;;1.63;1.20;;;10.70;99.90;;;;;;5424507;26;20213;-75
2024/04/16 11:42:29;;;;;;;2.33;1.30;;;10.20;99.90;;;;;;5450418;26;20265;-75
2024/04/16 11:45:18;;;;;;;5.23;1.57;;;10.10;99.90;;;;;;5449072;26;20211;-75
2024/04/16 11:48:06;;;;;;;5.07;1.40;;;10.20;99.90;;;;;;5450256;26;20784;-75
2024/04/16 11:50:54;;;;;;;7.57;2.03;;;10.30;99.90;;;;;;5449986;26;20231;-76
2024/04/16 11:53:43;;;;;;;1.77;1.27;;;10.20;99.90;;;;;;5448957;26;20778;-75
2024/04/16 11:56:31;;;;;;;3.70;1.40;;;10.30;99.90;;;;;;5424007;26;20215;-75
2024/04/16 11:59:18;;;;;;;3.33;1.50;;;10.20;99.90;;;;;;5450495;26;20323;-75
2024/04/16 12:10:59;;;;;;;2.73;1.30;;;11.40;99.90;;;;;;5452053;26;20283;-75
2024/04/16 12:17:20;;;;;;;4.63;1.47;;;11.30;99.90;;;;;;5377717;26;20272;-75
2024/04/16 12:20:08;;;;;;;2.00;1.10;;;11.20;99.90;;;;;;5377569;26;20343;-75
2024/04/16 12:22:57;;;;;;;5.13;1.57;;;11.20;99.90;;;;;;5376133;26;20214;-76
2024/04/16 12:33:51;;;;;;;5.57;1.50;;;10.50;99.90;;;;;;5379034;26;20315;-75
2024/04/16 12:36:38;;;;;;;2.57;1.30;;;10.20;99.90;;;;;;5376084;26;20260;-75
2024/04/16 12:39:26;;;;;;;2.63;1.23;;;10.00;99.90;;;;;;5378170;26;20213;-75
2024/04/16 12:42:13;;;;;;;4.13;1.50;;;10.20;99.90;;;;;;5377504;26;20665;-75
2024/04/16 12:45:01;;;;;;;5.23;1.20;;;10.70;99.90;;;;;;5377050;26;20744;-75
2024/04/16 12:47:48;;;;;;;2.97;1.30;;;11.00;99.90;;;;;;5378187;26;20646;-75
2024/04/16 12:50:36;;;;;;;2.20;1.43;;;11.40;99.90;;;;;;5376692;26;20278;-75
2024/04/16 12:53:23;;;;;;;3.73;1.20;;;11.40;99.90;;;;;;5374404;26;20217;-75
2024/04/16 12:56:12;;;;;;;2.47;1.10;;;11.50;99.90;;;;;;5378148;26;21220;-75
2024/04/16 12:59:00;;;;;;;3.07;1.10;;;11.80;99.90;;;;;;5376346;26;20588;-76
2024/04/16 13:01:47;;;;;;;3.73;1.10;;;12.00;99.90;;;;;;5376294;26;20217;-76
2024/04/16 13:04:35;;;;;;;2.60;1.20;;;12.30;99.90;;;;;;5376511;26;20621;-76
2024/04/16 13:07:23;;;;;;;2.80;1.23;;;12.50;99.90;;;;;;5376844;26;20597;-75
2024/04/16 13:10:11;;;;;;;2.30;0.93;;;12.70;99.90;;;;;;5376525;26;20229;-75
2024/04/16 13:12:58;;;;;;;2.33;1.20;;;12.50;99.90;;;;;;5375701;26;20214;-76
2024/04/16 13:15:46;;;;;;;3.77;1.20;;;12.20;99.90;;;;;;5406706;26;20231;-75
2024/04/16 13:18:34;;;;;;;1.93;1.10;;;12.40;99.90;;;;;;5449419;26;20320;-75
2024/04/16 13:21:22;;;;;;;4.20;1.00;;;12.20;99.90;;;;;;5422621;26;20294;-75
2024/04/16 13:24:09;;;;;;;2.47;1.20;;;11.70;99.90;;;;;;5448510;26;20216;-75
2024/04/16 13:26:57;;;;;;;1.67;1.10;;;11.60;99.90;;;;;;5421754;26;20215;-75
2024/04/16 13:29:44;;;;;;;4.20;1.30;;;11.70;99.90;;;;;;5446328;26;20211;-74
2024/04/16 13:32:31;;;;;;;2.37;1.03;;;12.00;99.90;;;;;;5448594;26;20257;-75
2024/04/16 13:35:19;;;;;;;2.60;1.17;;;12.40;99.90;;;;;;5449297;26;20238;-75
2024/04/16 13:38:06;;;;;;;5.47;1.10;;;12.90;99.90;;;;;;5451369;26;20212;-74
2024/04/16 13:40:53;;;;;;;2.03;1.07;;;12.60;99.90;;;;;;5451800;26;20279;-74
2024/04/16 13:43:41;;;;;;;5.57;1.10;;;12.50;99.90;;;;;;5450873;26;20649;-75
2024/04/16 13:46:28;;;;;;;2.23;1.10;;;12.30;99.90;;;;;;5451254;26;20223;-75
2024/04/16 13:49:16;;;;;;;2.33;1.00;;;12.10;99.90;;;;;;5425822;26;20275;-75
2024/04/16 13:52:03;;;;;;;1.33;1.00;;;12.00;99.90;;;;;;5451425;26;20211;-75
2024/04/16 13:54:51;;;;;;;1.70;1.07;;;12.00;99.90;;;;;;5450780;26;20231;-75
2024/04/16 13:57:38;;;;;;;4.43;1.27;;;12.00;99.90;;;;;;5451276;26;20695;-76
2024/04/16 14:00:26;;;;;;;2.73;1.10;;;12.10;99.90;;;;;;5425522;26;20286;-75
2024/04/16 14:03:13;;;;;;;3.63;1.20;;;12.50;99.90;;;;;;5450897;26;20223;-75
2024/04/16 14:06:02;;;;;;;1.33;0.93;;;12.60;99.90;;;;;;5425863;26;20271;-73
2024/04/16 14:08:50;;;;;;;1.77;0.80;;;13.40;99.90;;;;;;5450601;26;20223;-73
2024/04/16 14:11:37;;;;;;;4.20;1.27;;;13.60;99.90;;;;;;5450802;26;20675;-73
2024/04/16 14:14:25;;;;;;;2.83;1.20;;;13.50;99.90;;;;;;5450622;26;20288;-74
2024/04/16 14:17:13;;;;;;;2.50;1.30;;;13.20;99.90;;;;;;5452469;26;20211;-75
2024/04/16 14:20:00;;;;;;;2.90;1.20;;;12.90;99.90;;;;;;5452576;26;20315;-76
2024/04/16 14:22:48;;;;;;;2.43;1.37;;;12.30;99.90;;;;;;5450500;26;20287;-76
2024/04/16 14:25:36;;;;;;;2.40;1.23;;;12.20;99.90;;;;;;5450725;26;20215;-76
2024/04/16 14:28:23;;;;;;;3.90;1.40;;;12.20;99.90;;;;;;5425589;26;20259;-76
2024/04/16 14:31:14;;;;;;;2.53;1.73;;;12.00;99.90;;;;;;5425234;26;20320;-75
2024/04/16 14:34:01;;;;;;;2.90;1.43;;;11.90;99.90;;;;;;5427331;26;20254;-74
2024/04/16 14:36:49;;;;;;;3.57;1.50;;;11.70;99.90;;;;;;5450160;26;20215;-73
2024/04/16 14:39:37;;;;;;;4.60;1.47;;;11.70;99.90;;;;;;5449980;26;20691;-73
2024/04/16 14:42:25;;;;;;;7.07;1.50;;;11.50;99.90;;;;;;5451158;26;20215;-73
2024/04/16 14:45:12;;;;;;;3.43;1.43;;;11.40;99.90;;;;;;5449638;26;20562;-73
2024/04/16 14:48:01;;;;;;;2.45;1.50;;;11.40;99.90;;;;;;5451158;26;20373;-73
2024/04/16 14:50:48;;;;;;;3.03;1.40;;;11.40;99.90;;;;;;5450010;26;20335;-77
2024/04/16 14:53:38;;;;;;;2.50;1.40;;;11.20;99.90;;;;;;5424630;26;20375;-77
2024/04/16 14:56:25;;;;;;;4.13;1.65;;;11.10;99.90;;;;;;5449626;26;20760;-75
2024/04/16 14:59:13;;;;;;;4.80;1.50;;;11.20;99.90;;;;;;5449549;26;20283;-74
2024/04/16 15:02:01;;;;;;;3.10;1.40;;;11.40;99.90;;;;;;5451095;26;20212;-74
2024/04/16 15:04:49;;;;;;;5.10;1.70;;;11.40;99.90;;;;;;5424206;26;20332;-75
2024/04/16 15:07:36;;;;;;;3.97;1.50;;;11.40;99.90;;;;;;5449026;26;20319;-74